Main page
Satellite images Climate Cyclones Lightning AirportsFAQ Languages Contact Newsletter About
Weather : Europe Africa North America South America Asia Australia-Oceania Others

bangkok-th, Bangkok, Don Mueang International Airport

48456

latitude: , longitude: Thailand, elevation: 13-54-45N m


METAR: VTBD 181130Z 25011KT 220V280 9000 VCSH FEW020 SCT030 BKN100 30/24 Q1001 NOSIG